<?xml version="1.0" encoding="UTF-8" standalone="no" ?>
<gpx xmlns="http://www.topografix.com/GPX/1/1" xmlns:xsi="http://www.w3.org/2001/XMLSchema-instance" xsi:schemaLocation="http://www.topografix.com/GPX/1/1 http://www.topografix.com/GPX/1/1/gpx.xsd" version="1.1" creator="VisuGPX - https://www.visugpx.com">
  <metadata>
    <name>test ogeu</name>
  </metadata>
  <trk>
    <name><![CDATA[test ogeu_2]]></name>
    <trkseg>
      <trkpt lat="43.16624" lon="-0.55376">
        <ele>300.07</ele>
        <time>2012-03-04T08:49:30Z</time>
      </trkpt>
      <trkpt lat="43.1662" lon="-0.55311">
        <ele>300.07</ele>
        <time>2012-03-04T08:49:38Z</time>
      </trkpt>
      <trkpt lat="43.16608" lon="-0.55246">
        <ele>300.55</ele>
        <time>2012-03-04T08:49:46Z</time>
      </trkpt>
      <trkpt lat="43.16593" lon="-0.5517">
        <ele>301.51</ele>
        <time>2012-03-04T08:49:56Z</time>
      </trkpt>
      <trkpt lat="43.16589" lon="-0.5511">
        <ele>301.51</ele>
        <time>2012-03-04T08:50:04Z</time>
      </trkpt>
      <trkpt lat="43.16585" lon="-0.55048">
        <ele>301.51</ele>
        <time>2012-03-04T08:50:12Z</time>
      </trkpt>
      <trkpt lat="43.16584" lon="-0.55032">
        <ele>301.99</ele>
        <time>2012-03-04T08:50:14Z</time>
      </trkpt>
      <trkpt lat="43.16582" lon="-0.55025">
        <ele>301.99</ele>
        <time>2012-03-04T08:50:15Z</time>
      </trkpt>
      <trkpt lat="43.16579" lon="-0.55021">
        <ele>301.99</ele>
        <time>2012-03-04T08:50:16Z</time>
      </trkpt>
      <trkpt lat="43.16571" lon="-0.55022">
        <ele>301.99</ele>
        <time>2012-03-04T08:50:18Z</time>
      </trkpt>
      <trkpt lat="43.16567" lon="-0.55026">
        <ele>301.99</ele>
        <time>2012-03-04T08:50:19Z</time>
      </trkpt>
      <trkpt lat="43.16563" lon="-0.5503">
        <ele>301.99</ele>
        <time>2012-03-04T08:50:20Z</time>
      </trkpt>
      <trkpt lat="43.16542" lon="-0.55049">
        <ele>301.99</ele>
        <time>2012-03-04T08:50:25Z</time>
      </trkpt>
      <trkpt lat="43.16538" lon="-0.55053">
        <ele>302.47</ele>
        <time>2012-03-04T08:50:26Z</time>
      </trkpt>
      <trkpt lat="43.16525" lon="-0.55067">
        <ele>302.47</ele>
        <time>2012-03-04T08:50:29Z</time>
      </trkpt>
      <trkpt lat="43.16502" lon="-0.55089">
        <ele>300.55</ele>
        <time>2012-03-04T08:50:33Z</time>
      </trkpt>
      <trkpt lat="43.16478" lon="-0.55132">
        <ele>296.7</ele>
        <time>2012-03-04T08:50:38Z</time>
      </trkpt>
      <trkpt lat="43.1645" lon="-0.55153">
        <ele>294.3</ele>
        <time>2012-03-04T08:50:42Z</time>
      </trkpt>
      <trkpt lat="43.16426" lon="-0.55153">
        <ele>291.9</ele>
        <time>2012-03-04T08:50:46Z</time>
      </trkpt>
      <trkpt lat="43.16412" lon="-0.55154">
        <ele>289.49</ele>
        <time>2012-03-04T08:50:49Z</time>
      </trkpt>
      <trkpt lat="43.16409" lon="-0.55166">
        <ele>288.53</ele>
        <time>2012-03-04T08:50:51Z</time>
      </trkpt>
      <trkpt lat="43.16401" lon="-0.55188">
        <ele>288.05</ele>
        <time>2012-03-04T08:50:54Z</time>
      </trkpt>
      <trkpt lat="43.16389" lon="-0.55197">
        <ele>288.05</ele>
        <time>2012-03-04T08:50:56Z</time>
      </trkpt>
      <trkpt lat="43.16347" lon="-0.5523">
        <ele>289.01</ele>
        <time>2012-03-04T08:51:04Z</time>
      </trkpt>
      <trkpt lat="43.16333" lon="-0.55242">
        <ele>290.94</ele>
        <time>2012-03-04T08:51:08Z</time>
      </trkpt>
      <trkpt lat="43.16311" lon="-0.55263">
        <ele>292.86</ele>
        <time>2012-03-04T08:51:15Z</time>
      </trkpt>
      <trkpt lat="43.16292" lon="-0.55283">
        <ele>292.86</ele>
        <time>2012-03-04T08:51:21Z</time>
      </trkpt>
      <trkpt lat="43.16262" lon="-0.5529">
        <ele>291.42</ele>
        <time>2012-03-04T08:51:26Z</time>
      </trkpt>
      <trkpt lat="43.16255" lon="-0.55292">
        <ele>290.94</ele>
        <time>2012-03-04T08:51:27Z</time>
      </trkpt>
      <trkpt lat="43.16247" lon="-0.55295">
        <ele>290.46</ele>
        <time>2012-03-04T08:51:28Z</time>
      </trkpt>
      <trkpt lat="43.16239" lon="-0.553">
        <ele>289.97</ele>
        <time>2012-03-04T08:51:29Z</time>
      </trkpt>
      <trkpt lat="43.16217" lon="-0.55313">
        <ele>289.01</ele>
        <time>2012-03-04T08:51:32Z</time>
      </trkpt>
      <trkpt lat="43.1621" lon="-0.55314">
        <ele>288.05</ele>
        <time>2012-03-04T08:51:33Z</time>
      </trkpt>
      <trkpt lat="43.16202" lon="-0.55313">
        <ele>287.57</ele>
        <time>2012-03-04T08:51:34Z</time>
      </trkpt>
      <trkpt lat="43.16194" lon="-0.55308">
        <ele>287.57</ele>
        <time>2012-03-04T08:51:35Z</time>
      </trkpt>
      <trkpt lat="43.16187" lon="-0.55301">
        <ele>286.61</ele>
        <time>2012-03-04T08:51:36Z</time>
      </trkpt>
      <trkpt lat="43.1618" lon="-0.55294">
        <ele>286.13</ele>
        <time>2012-03-04T08:51:37Z</time>
      </trkpt>
      <trkpt lat="43.16173" lon="-0.55287">
        <ele>286.13</ele>
        <time>2012-03-04T08:51:38Z</time>
      </trkpt>
      <trkpt lat="43.1615" lon="-0.55268">
        <ele>284.21</ele>
        <time>2012-03-04T08:51:41Z</time>
      </trkpt>
      <trkpt lat="43.1611" lon="-0.55234">
        <ele>280.84</ele>
        <time>2012-03-04T08:51:46Z</time>
      </trkpt>
      <trkpt lat="43.16102" lon="-0.55226">
        <ele>280.36</ele>
        <time>2012-03-04T08:51:47Z</time>
      </trkpt>
      <trkpt lat="43.16051" lon="-0.55178">
        <ele>277.48</ele>
        <time>2012-03-04T08:51:54Z</time>
      </trkpt>
      <trkpt lat="43.16044" lon="-0.55173">
        <ele>277</ele>
        <time>2012-03-04T08:51:55Z</time>
      </trkpt>
      <trkpt lat="43.16036" lon="-0.55171">
        <ele>276.04</ele>
        <time>2012-03-04T08:51:56Z</time>
      </trkpt>
      <trkpt lat="43.16028" lon="-0.55172">
        <ele>275.56</ele>
        <time>2012-03-04T08:51:57Z</time>
      </trkpt>
      <trkpt lat="43.16015" lon="-0.55174">
        <ele>273.15</ele>
        <time>2012-03-04T08:51:59Z</time>
      </trkpt>
      <trkpt lat="43.16011" lon="-0.55172">
        <ele>272.19</ele>
        <time>2012-03-04T08:52:00Z</time>
      </trkpt>
      <trkpt lat="43.16007" lon="-0.55168">
        <ele>272.19</ele>
        <time>2012-03-04T08:52:01Z</time>
      </trkpt>
      <trkpt lat="43.16004" lon="-0.55162">
        <ele>271.71</ele>
        <time>2012-03-04T08:52:02Z</time>
      </trkpt>
      <trkpt lat="43.16001" lon="-0.55156">
        <ele>271.71</ele>
        <time>2012-03-04T08:52:03Z</time>
      </trkpt>
      <trkpt lat="43.15998" lon="-0.55151">
        <ele>271.71</ele>
        <time>2012-03-04T08:52:04Z</time>
      </trkpt>
      <trkpt lat="43.15993" lon="-0.55149">
        <ele>271.23</ele>
        <time>2012-03-04T08:52:05Z</time>
      </trkpt>
      <trkpt lat="43.15987" lon="-0.55149">
        <ele>271.23</ele>
        <time>2012-03-04T08:52:06Z</time>
      </trkpt>
      <trkpt lat="43.1598" lon="-0.55148">
        <ele>270.75</ele>
        <time>2012-03-04T08:52:07Z</time>
      </trkpt>
      <trkpt lat="43.15967" lon="-0.55148">
        <ele>270.75</ele>
        <time>2012-03-04T08:52:09Z</time>
      </trkpt>
      <trkpt lat="43.15961" lon="-0.55148">
        <ele>270.75</ele>
        <time>2012-03-04T08:52:10Z</time>
      </trkpt>
      <trkpt lat="43.15929" lon="-0.55151">
        <ele>269.31</ele>
        <time>2012-03-04T08:52:15Z</time>
      </trkpt>
      <trkpt lat="43.15923" lon="-0.5515">
        <ele>269.79</ele>
        <time>2012-03-04T08:52:16Z</time>
      </trkpt>
      <trkpt lat="43.15918" lon="-0.55148">
        <ele>269.31</ele>
        <time>2012-03-04T08:52:17Z</time>
      </trkpt>
      <trkpt lat="43.15914" lon="-0.55146">
        <ele>269.31</ele>
        <time>2012-03-04T08:52:18Z</time>
      </trkpt>
      <trkpt lat="43.15909" lon="-0.55143">
        <ele>269.31</ele>
        <time>2012-03-04T08:52:19Z</time>
      </trkpt>
      <trkpt lat="43.15887" lon="-0.55133">
        <ele>269.31</ele>
        <time>2012-03-04T08:52:24Z</time>
      </trkpt>
      <trkpt lat="43.15867" lon="-0.55119">
        <ele>270.27</ele>
        <time>2012-03-04T08:52:30Z</time>
      </trkpt>
      <trkpt lat="43.15855" lon="-0.55112">
        <ele>270.27</ele>
        <time>2012-03-04T08:52:33Z</time>
      </trkpt>
      <trkpt lat="43.15841" lon="-0.55101">
        <ele>271.23</ele>
        <time>2012-03-04T08:52:37Z</time>
      </trkpt>
      <trkpt lat="43.15831" lon="-0.55109">
        <ele>270.75</ele>
        <time>2012-03-04T08:52:41Z</time>
      </trkpt>
      <trkpt lat="43.15829" lon="-0.55111">
        <ele>270.75</ele>
        <time>2012-03-04T08:52:42Z</time>
      </trkpt>
      <trkpt lat="43.15823" lon="-0.5512">
        <ele>272.19</ele>
        <time>2012-03-04T08:52:47Z</time>
      </trkpt>
      <trkpt lat="43.15812" lon="-0.55131">
        <ele>274.59</ele>
        <time>2012-03-04T08:52:54Z</time>
      </trkpt>
      <trkpt lat="43.15804" lon="-0.5514">
        <ele>277</ele>
        <time>2012-03-04T08:53:00Z</time>
      </trkpt>
      <trkpt lat="43.15803" lon="-0.55142">
        <ele>277</ele>
        <time>2012-03-04T08:53:01Z</time>
      </trkpt>
      <trkpt lat="43.15799" lon="-0.5515">
        <ele>278.44</ele>
        <time>2012-03-04T08:53:07Z</time>
      </trkpt>
      <trkpt lat="43.15798" lon="-0.55155">
        <ele>278.92</ele>
        <time>2012-03-04T08:53:10Z</time>
      </trkpt>
      <trkpt lat="43.15798" lon="-0.5516">
        <ele>280.36</ele>
        <time>2012-03-04T08:53:13Z</time>
      </trkpt>
      <trkpt lat="43.15794" lon="-0.55174">
        <ele>281.8</ele>
        <time>2012-03-04T08:53:21Z</time>
      </trkpt>
      <trkpt lat="43.15784" lon="-0.5519">
        <ele>282.28</ele>
        <time>2012-03-04T08:53:28Z</time>
      </trkpt>
      <trkpt lat="43.15776" lon="-0.55191">
        <ele>282.77</ele>
        <time>2012-03-04T08:53:32Z</time>
      </trkpt>
      <trkpt lat="43.15757" lon="-0.55189">
        <ele>284.21</ele>
        <time>2012-03-04T08:53:40Z</time>
      </trkpt>
      <trkpt lat="43.15743" lon="-0.55193">
        <ele>285.17</ele>
        <time>2012-03-04T08:53:48Z</time>
      </trkpt>
      <trkpt lat="43.15734" lon="-0.55198">
        <ele>284.21</ele>
        <time>2012-03-04T08:53:53Z</time>
      </trkpt>
      <trkpt lat="43.15724" lon="-0.55204">
        <ele>283.73</ele>
        <time>2012-03-04T08:53:57Z</time>
      </trkpt>
      <trkpt lat="43.15708" lon="-0.55195">
        <ele>283.25</ele>
        <time>2012-03-04T08:54:03Z</time>
      </trkpt>
      <trkpt lat="43.15691" lon="-0.55202">
        <ele>281.8</ele>
        <time>2012-03-04T08:54:08Z</time>
      </trkpt>
      <trkpt lat="43.15672" lon="-0.55209">
        <ele>281.32</ele>
        <time>2012-03-04T08:54:14Z</time>
      </trkpt>
      <trkpt lat="43.1567" lon="-0.5521">
        <ele>281.8</ele>
        <time>2012-03-04T08:54:15Z</time>
      </trkpt>
      <trkpt lat="43.15656" lon="-0.55216">
        <ele>282.77</ele>
        <time>2012-03-04T08:54:21Z</time>
      </trkpt>
      <trkpt lat="43.15646" lon="-0.55216">
        <ele>284.21</ele>
        <time>2012-03-04T08:54:25Z</time>
      </trkpt>
      <trkpt lat="43.15635" lon="-0.5522">
        <ele>286.13</ele>
        <time>2012-03-04T08:54:32Z</time>
      </trkpt>
      <trkpt lat="43.15633" lon="-0.55221">
        <ele>285.65</ele>
        <time>2012-03-04T08:54:33Z</time>
      </trkpt>
      <trkpt lat="43.15613" lon="-0.5523">
        <ele>286.13</ele>
        <time>2012-03-04T08:54:40Z</time>
      </trkpt>
      <trkpt lat="43.15588" lon="-0.5524">
        <ele>285.65</ele>
        <time>2012-03-04T08:54:45Z</time>
      </trkpt>
      <trkpt lat="43.15553" lon="-0.55247">
        <ele>287.09</ele>
        <time>2012-03-04T08:54:53Z</time>
      </trkpt>
      <trkpt lat="43.15529" lon="-0.55252">
        <ele>288.05</ele>
        <time>2012-03-04T08:55:01Z</time>
      </trkpt>
      <trkpt lat="43.15509" lon="-0.55253">
        <ele>289.01</ele>
        <time>2012-03-04T08:55:07Z</time>
      </trkpt>
      <trkpt lat="43.15493" lon="-0.5526">
        <ele>289.49</ele>
        <time>2012-03-04T08:55:13Z</time>
      </trkpt>
      <trkpt lat="43.1547" lon="-0.55261">
        <ele>289.01</ele>
        <time>2012-03-04T08:55:20Z</time>
      </trkpt>
      <trkpt lat="43.15451" lon="-0.55264">
        <ele>290.94</ele>
        <time>2012-03-04T08:55:26Z</time>
      </trkpt>
      <trkpt lat="43.15437" lon="-0.55274">
        <ele>291.9</ele>
        <time>2012-03-04T08:55:32Z</time>
      </trkpt>
      <trkpt lat="43.15425" lon="-0.5528">
        <ele>293.82</ele>
        <time>2012-03-04T08:55:38Z</time>
      </trkpt>
      <trkpt lat="43.15404" lon="-0.55293">
        <ele>295.26</ele>
        <time>2012-03-04T08:55:47Z</time>
      </trkpt>
      <trkpt lat="43.15388" lon="-0.55302">
        <ele>296.22</ele>
        <time>2012-03-04T08:55:54Z</time>
      </trkpt>
      <trkpt lat="43.1536" lon="-0.55299">
        <ele>297.18</ele>
        <time>2012-03-04T08:56:00Z</time>
      </trkpt>
      <trkpt lat="43.15354" lon="-0.5528">
        <ele>298.63</ele>
        <time>2012-03-04T08:56:07Z</time>
      </trkpt>
      <trkpt lat="43.15357" lon="-0.55259">
        <ele>299.11</ele>
        <time>2012-03-04T08:56:13Z</time>
      </trkpt>
      <trkpt lat="43.15362" lon="-0.55234">
        <ele>298.15</ele>
        <time>2012-03-04T08:56:18Z</time>
      </trkpt>
      <trkpt lat="43.15379" lon="-0.55184">
        <ele>295.26</ele>
        <time>2012-03-04T08:56:26Z</time>
      </trkpt>
      <trkpt lat="43.15387" lon="-0.55153">
        <ele>292.86</ele>
        <time>2012-03-04T08:56:31Z</time>
      </trkpt>
      <trkpt lat="43.15392" lon="-0.55115">
        <ele>290.46</ele>
        <time>2012-03-04T08:56:37Z</time>
      </trkpt>
      <trkpt lat="43.15401" lon="-0.55084">
        <ele>289.49</ele>
        <time>2012-03-04T08:56:41Z</time>
      </trkpt>
      <trkpt lat="43.15394" lon="-0.55065">
        <ele>290.46</ele>
        <time>2012-03-04T08:56:46Z</time>
      </trkpt>
      <trkpt lat="43.15382" lon="-0.55048">
        <ele>291.42</ele>
        <time>2012-03-04T08:56:52Z</time>
      </trkpt>
      <trkpt lat="43.1538" lon="-0.55047">
        <ele>291.9</ele>
        <time>2012-03-04T08:56:53Z</time>
      </trkpt>
      <trkpt lat="43.15365" lon="-0.55038">
        <ele>293.34</ele>
        <time>2012-03-04T08:57:00Z</time>
      </trkpt>
      <trkpt lat="43.15352" lon="-0.55036">
        <ele>294.3</ele>
        <time>2012-03-04T08:57:05Z</time>
      </trkpt>
      <trkpt lat="43.15336" lon="-0.55018">
        <ele>294.78</ele>
        <time>2012-03-04T08:57:12Z</time>
      </trkpt>
      <trkpt lat="43.15334" lon="-0.55014">
        <ele>294.78</ele>
        <time>2012-03-04T08:57:13Z</time>
      </trkpt>
      <trkpt lat="43.15322" lon="-0.54995">
        <ele>293.34</ele>
        <time>2012-03-04T08:57:17Z</time>
      </trkpt>
      <trkpt lat="43.15313" lon="-0.5497">
        <ele>293.34</ele>
        <time>2012-03-04T08:57:22Z</time>
      </trkpt>
      <trkpt lat="43.15312" lon="-0.54939">
        <ele>294.78</ele>
        <time>2012-03-04T08:57:28Z</time>
      </trkpt>
      <trkpt lat="43.15317" lon="-0.54915">
        <ele>295.74</ele>
        <time>2012-03-04T08:57:34Z</time>
      </trkpt>
      <trkpt lat="43.15322" lon="-0.5491">
        <ele>295.74</ele>
        <time>2012-03-04T08:57:36Z</time>
      </trkpt>
      <trkpt lat="43.15335" lon="-0.54905">
        <ele>295.26</ele>
        <time>2012-03-04T08:57:39Z</time>
      </trkpt>
      <trkpt lat="43.15339" lon="-0.54901">
        <ele>294.78</ele>
        <time>2012-03-04T08:57:40Z</time>
      </trkpt>
      <trkpt lat="43.15342" lon="-0.54896">
        <ele>295.26</ele>
        <time>2012-03-04T08:57:41Z</time>
      </trkpt>
      <trkpt lat="43.15345" lon="-0.54891">
        <ele>295.26</ele>
        <time>2012-03-04T08:57:42Z</time>
      </trkpt>
      <trkpt lat="43.15348" lon="-0.54886">
        <ele>295.26</ele>
        <time>2012-03-04T08:57:43Z</time>
      </trkpt>
      <trkpt lat="43.15353" lon="-0.54875">
        <ele>295.26</ele>
        <time>2012-03-04T08:57:45Z</time>
      </trkpt>
      <trkpt lat="43.15359" lon="-0.54864">
        <ele>295.26</ele>
        <time>2012-03-04T08:57:47Z</time>
      </trkpt>
      <trkpt lat="43.15387" lon="-0.54826">
        <ele>293.34</ele>
        <time>2012-03-04T08:57:54Z</time>
      </trkpt>
      <trkpt lat="43.15407" lon="-0.54801">
        <ele>293.34</ele>
        <time>2012-03-04T08:57:59Z</time>
      </trkpt>
      <trkpt lat="43.15412" lon="-0.5479">
        <ele>293.34</ele>
        <time>2012-03-04T08:58:01Z</time>
      </trkpt>
      <trkpt lat="43.15419" lon="-0.54766">
        <ele>294.3</ele>
        <time>2012-03-04T08:58:07Z</time>
      </trkpt>
      <trkpt lat="43.15415" lon="-0.54752">
        <ele>295.26</ele>
        <time>2012-03-04T08:58:12Z</time>
      </trkpt>
      <trkpt lat="43.15404" lon="-0.54742">
        <ele>295.26</ele>
        <time>2012-03-04T08:58:17Z</time>
      </trkpt>
      <trkpt lat="43.15381" lon="-0.54732">
        <ele>296.7</ele>
        <time>2012-03-04T08:58:25Z</time>
      </trkpt>
      <trkpt lat="43.15369" lon="-0.54716">
        <ele>297.67</ele>
        <time>2012-03-04T08:58:31Z</time>
      </trkpt>
      <trkpt lat="43.1535" lon="-0.54689">
        <ele>298.15</ele>
        <time>2012-03-04T08:58:40Z</time>
      </trkpt>
      <trkpt lat="43.15325" lon="-0.54653">
        <ele>300.07</ele>
        <time>2012-03-04T08:58:51Z</time>
      </trkpt>
      <trkpt lat="43.15312" lon="-0.54624">
        <ele>301.03</ele>
        <time>2012-03-04T08:58:59Z</time>
      </trkpt>
      <trkpt lat="43.15303" lon="-0.54594">
        <ele>302.47</ele>
        <time>2012-03-04T08:59:07Z</time>
      </trkpt>
      <trkpt lat="43.15295" lon="-0.54573">
        <ele>302.95</ele>
        <time>2012-03-04T08:59:13Z</time>
      </trkpt>
      <trkpt lat="43.1528" lon="-0.5454">
        <ele>303.43</ele>
        <time>2012-03-04T08:59:22Z</time>
      </trkpt>
      <trkpt lat="43.15269" lon="-0.54512">
        <ele>303.43</ele>
        <time>2012-03-04T08:59:28Z</time>
      </trkpt>
      <trkpt lat="43.15261" lon="-0.54484">
        <ele>304.39</ele>
        <time>2012-03-04T08:59:34Z</time>
      </trkpt>
      <trkpt lat="43.15238" lon="-0.54465">
        <ele>303.91</ele>
        <time>2012-03-04T08:59:41Z</time>
      </trkpt>
      <trkpt lat="43.15235" lon="-0.54461">
        <ele>303.91</ele>
        <time>2012-03-04T08:59:42Z</time>
      </trkpt>
      <trkpt lat="43.15221" lon="-0.5445">
        <ele>302.47</ele>
        <time>2012-03-04T08:59:45Z</time>
      </trkpt>
      <trkpt lat="43.15215" lon="-0.54447">
        <ele>301.99</ele>
        <time>2012-03-04T08:59:46Z</time>
      </trkpt>
      <trkpt lat="43.15209" lon="-0.54443">
        <ele>301.51</ele>
        <time>2012-03-04T08:59:47Z</time>
      </trkpt>
      <trkpt lat="43.15198" lon="-0.54433">
        <ele>300.07</ele>
        <time>2012-03-04T08:59:49Z</time>
      </trkpt>
      <trkpt lat="43.15196" lon="-0.54427">
        <ele>301.03</ele>
        <time>2012-03-04T08:59:50Z</time>
      </trkpt>
      <trkpt lat="43.15194" lon="-0.54421">
        <ele>301.99</ele>
        <time>2012-03-04T08:59:51Z</time>
      </trkpt>
      <trkpt lat="43.15194" lon="-0.54416">
        <ele>302.47</ele>
        <time>2012-03-04T08:59:52Z</time>
      </trkpt>
      <trkpt lat="43.15194" lon="-0.54411">
        <ele>302.47</ele>
        <time>2012-03-04T08:59:53Z</time>
      </trkpt>
      <trkpt lat="43.15195" lon="-0.54408">
        <ele>302.47</ele>
        <time>2012-03-04T08:59:54Z</time>
      </trkpt>
      <trkpt lat="43.15195" lon="-0.54405">
        <ele>302.47</ele>
        <time>2012-03-04T08:59:55Z</time>
      </trkpt>
      <trkpt lat="43.15198" lon="-0.54381">
        <ele>304.88</ele>
        <time>2012-03-04T09:00:02Z</time>
      </trkpt>
      <trkpt lat="43.15203" lon="-0.54356">
        <ele>306.8</ele>
        <time>2012-03-04T09:00:10Z</time>
      </trkpt>
      <trkpt lat="43.15205" lon="-0.54336">
        <ele>308.72</ele>
        <time>2012-03-04T09:00:17Z</time>
      </trkpt>
      <trkpt lat="43.15207" lon="-0.54318">
        <ele>310.16</ele>
        <time>2012-03-04T09:00:24Z</time>
      </trkpt>
      <trkpt lat="43.15214" lon="-0.54299">
        <ele>311.6</ele>
        <time>2012-03-04T09:00:32Z</time>
      </trkpt>
      <trkpt lat="43.15223" lon="-0.54285">
        <ele>312.57</ele>
        <time>2012-03-04T09:00:39Z</time>
      </trkpt>
      <trkpt lat="43.15224" lon="-0.54283">
        <ele>312.57</ele>
        <time>2012-03-04T09:00:40Z</time>
      </trkpt>
      <trkpt lat="43.15225" lon="-0.54278">
        <ele>312.09</ele>
        <time>2012-03-04T09:00:42Z</time>
      </trkpt>
      <trkpt lat="43.15234" lon="-0.54257">
        <ele>312.09</ele>
        <time>2012-03-04T09:00:48Z</time>
      </trkpt>
      <trkpt lat="43.15232" lon="-0.54231">
        <ele>311.12</ele>
        <time>2012-03-04T09:00:53Z</time>
      </trkpt>
      <trkpt lat="43.15232" lon="-0.54225">
        <ele>311.12</ele>
        <time>2012-03-04T09:00:54Z</time>
      </trkpt>
      <trkpt lat="43.15229" lon="-0.54193">
        <ele>310.16</ele>
        <time>2012-03-04T09:00:59Z</time>
      </trkpt>
      <trkpt lat="43.15227" lon="-0.54168">
        <ele>309.2</ele>
        <time>2012-03-04T09:01:03Z</time>
      </trkpt>
      <trkpt lat="43.15228" lon="-0.54161">
        <ele>309.2</ele>
        <time>2012-03-04T09:01:04Z</time>
      </trkpt>
      <trkpt lat="43.1523" lon="-0.54141">
        <ele>310.64</ele>
        <time>2012-03-04T09:01:08Z</time>
      </trkpt>
      <trkpt lat="43.15225" lon="-0.54109">
        <ele>311.6</ele>
        <time>2012-03-04T09:01:15Z</time>
      </trkpt>
      <trkpt lat="43.1522" lon="-0.54069">
        <ele>313.53</ele>
        <time>2012-03-04T09:01:25Z</time>
      </trkpt>
      <trkpt lat="43.15216" lon="-0.54042">
        <ele>314.49</ele>
        <time>2012-03-04T09:01:32Z</time>
      </trkpt>
      <trkpt lat="43.15218" lon="-0.54016">
        <ele>316.41</ele>
        <time>2012-03-04T09:01:39Z</time>
      </trkpt>
      <trkpt lat="43.15212" lon="-0.53998">
        <ele>315.93</ele>
        <time>2012-03-04T09:01:44Z</time>
      </trkpt>
      <trkpt lat="43.15199" lon="-0.53962">
        <ele>314.01</ele>
        <time>2012-03-04T09:01:50Z</time>
      </trkpt>
      <trkpt lat="43.15196" lon="-0.53954">
        <ele>313.53</ele>
        <time>2012-03-04T09:01:51Z</time>
      </trkpt>
      <trkpt lat="43.15195" lon="-0.53946">
        <ele>313.05</ele>
        <time>2012-03-04T09:01:52Z</time>
      </trkpt>
      <trkpt lat="43.15197" lon="-0.53937">
        <ele>312.57</ele>
        <time>2012-03-04T09:01:53Z</time>
      </trkpt>
      <trkpt lat="43.15199" lon="-0.5393">
        <ele>312.57</ele>
        <time>2012-03-04T09:01:54Z</time>
      </trkpt>
      <trkpt lat="43.15203" lon="-0.53924">
        <ele>313.05</ele>
        <time>2012-03-04T09:01:55Z</time>
      </trkpt>
      <trkpt lat="43.15215" lon="-0.539">
        <ele>312.57</ele>
        <time>2012-03-04T09:01:59Z</time>
      </trkpt>
      <trkpt lat="43.15239" lon="-0.53864">
        <ele>310.16</ele>
        <time>2012-03-04T09:02:05Z</time>
      </trkpt>
      <trkpt lat="43.15242" lon="-0.53857">
        <ele>309.68</ele>
        <time>2012-03-04T09:02:06Z</time>
      </trkpt>
      <trkpt lat="43.15244" lon="-0.53851">
        <ele>309.68</ele>
        <time>2012-03-04T09:02:07Z</time>
      </trkpt>
      <trkpt lat="43.15245" lon="-0.53844">
        <ele>308.24</ele>
        <time>2012-03-04T09:02:08Z</time>
      </trkpt>
      <trkpt lat="43.15244" lon="-0.53837">
        <ele>307.76</ele>
        <time>2012-03-04T09:02:09Z</time>
      </trkpt>
      <trkpt lat="43.15242" lon="-0.53831">
        <ele>308.24</ele>
        <time>2012-03-04T09:02:10Z</time>
      </trkpt>
      <trkpt lat="43.1524" lon="-0.53825">
        <ele>307.76</ele>
        <time>2012-03-04T09:02:11Z</time>
      </trkpt>
      <trkpt lat="43.15237" lon="-0.53819">
        <ele>307.76</ele>
        <time>2012-03-04T09:02:12Z</time>
      </trkpt>
      <trkpt lat="43.15236" lon="-0.53813">
        <ele>307.28</ele>
        <time>2012-03-04T09:02:13Z</time>
      </trkpt>
      <trkpt lat="43.15234" lon="-0.53806">
        <ele>307.28</ele>
        <time>2012-03-04T09:02:14Z</time>
      </trkpt>
      <trkpt lat="43.15234" lon="-0.538">
        <ele>307.28</ele>
        <time>2012-03-04T09:02:15Z</time>
      </trkpt>
      <trkpt lat="43.15235" lon="-0.53793">
        <ele>308.24</ele>
        <time>2012-03-04T09:02:16Z</time>
      </trkpt>
      <trkpt lat="43.15234" lon="-0.53788">
        <ele>308.24</ele>
        <time>2012-03-04T09:02:17Z</time>
      </trkpt>
      <trkpt lat="43.15232" lon="-0.53783">
        <ele>308.24</ele>
        <time>2012-03-04T09:02:18Z</time>
      </trkpt>
      <trkpt lat="43.1523" lon="-0.53779">
        <ele>308.24</ele>
        <time>2012-03-04T09:02:19Z</time>
      </trkpt>
      <trkpt lat="43.15228" lon="-0.53776">
        <ele>308.72</ele>
        <time>2012-03-04T09:02:20Z</time>
      </trkpt>
      <trkpt lat="43.15225" lon="-0.53774">
        <ele>308.24</ele>
        <time>2012-03-04T09:02:21Z</time>
      </trkpt>
      <trkpt lat="43.15222" lon="-0.53771">
        <ele>308.72</ele>
        <time>2012-03-04T09:02:22Z</time>
      </trkpt>
      <trkpt lat="43.1522" lon="-0.53768">
        <ele>309.2</ele>
        <time>2012-03-04T09:02:23Z</time>
      </trkpt>
      <trkpt lat="43.15204" lon="-0.53736">
        <ele>310.64</ele>
        <time>2012-03-04T09:02:32Z</time>
      </trkpt>
      <trkpt lat="43.15188" lon="-0.53706">
        <ele>311.6</ele>
        <time>2012-03-04T09:02:41Z</time>
      </trkpt>
      <trkpt lat="43.15171" lon="-0.5368">
        <ele>313.53</ele>
        <time>2012-03-04T09:02:51Z</time>
      </trkpt>
      <trkpt lat="43.15159" lon="-0.53655">
        <ele>316.41</ele>
        <time>2012-03-04T09:03:00Z</time>
      </trkpt>
      <trkpt lat="43.15148" lon="-0.53633">
        <ele>318.33</ele>
        <time>2012-03-04T09:03:09Z</time>
      </trkpt>
      <trkpt lat="43.15139" lon="-0.53615">
        <ele>319.78</ele>
        <time>2012-03-04T09:03:17Z</time>
      </trkpt>
      <trkpt lat="43.1513" lon="-0.53594">
        <ele>322.18</ele>
        <time>2012-03-04T09:03:25Z</time>
      </trkpt>
      <trkpt lat="43.15121" lon="-0.53572">
        <ele>323.14</ele>
        <time>2012-03-04T09:03:33Z</time>
      </trkpt>
      <trkpt lat="43.15111" lon="-0.53546">
        <ele>324.58</ele>
        <time>2012-03-04T09:03:41Z</time>
      </trkpt>
      <trkpt lat="43.15112" lon="-0.53521">
        <ele>324.58</ele>
        <time>2012-03-04T09:03:47Z</time>
      </trkpt>
      <trkpt lat="43.15117" lon="-0.53495">
        <ele>324.58</ele>
        <time>2012-03-04T09:03:53Z</time>
      </trkpt>
      <trkpt lat="43.15125" lon="-0.53483">
        <ele>324.58</ele>
        <time>2012-03-04T09:03:56Z</time>
      </trkpt>
      <trkpt lat="43.15154" lon="-0.53449">
        <ele>322.18</ele>
        <time>2012-03-04T09:04:03Z</time>
      </trkpt>
      <trkpt lat="43.15158" lon="-0.53442">
        <ele>322.18</ele>
        <time>2012-03-04T09:04:04Z</time>
      </trkpt>
      <trkpt lat="43.15162" lon="-0.53436">
        <ele>321.7</ele>
        <time>2012-03-04T09:04:05Z</time>
      </trkpt>
      <trkpt lat="43.15171" lon="-0.53424">
        <ele>321.7</ele>
        <time>2012-03-04T09:04:07Z</time>
      </trkpt>
      <trkpt lat="43.15176" lon="-0.53419">
        <ele>321.7</ele>
        <time>2012-03-04T09:04:08Z</time>
      </trkpt>
      <trkpt lat="43.15206" lon="-0.53392">
        <ele>322.66</ele>
        <time>2012-03-04T09:04:15Z</time>
      </trkpt>
      <trkpt lat="43.1524" lon="-0.53359">
        <ele>324.58</ele>
        <time>2012-03-04T09:04:25Z</time>
      </trkpt>
      <trkpt lat="43.15256" lon="-0.53341">
        <ele>325.06</ele>
        <time>2012-03-04T09:04:30Z</time>
      </trkpt>
      <trkpt lat="43.1526" lon="-0.53338">
        <ele>326.02</ele>
        <time>2012-03-04T09:04:31Z</time>
      </trkpt>
      <trkpt lat="43.15269" lon="-0.53333">
        <ele>326.02</ele>
        <time>2012-03-04T09:04:33Z</time>
      </trkpt>
      <trkpt lat="43.15273" lon="-0.53332">
        <ele>326.02</ele>
        <time>2012-03-04T09:04:34Z</time>
      </trkpt>
      <trkpt lat="43.15277" lon="-0.53331">
        <ele>326.5</ele>
        <time>2012-03-04T09:04:35Z</time>
      </trkpt>
      <trkpt lat="43.15281" lon="-0.5333">
        <ele>326.5</ele>
        <time>2012-03-04T09:04:36Z</time>
      </trkpt>
      <trkpt lat="43.15286" lon="-0.53329">
        <ele>326.5</ele>
        <time>2012-03-04T09:04:37Z</time>
      </trkpt>
      <trkpt lat="43.1529" lon="-0.53329">
        <ele>326.5</ele>
        <time>2012-03-04T09:04:38Z</time>
      </trkpt>
      <trkpt lat="43.15326" lon="-0.53321">
        <ele>326.99</ele>
        <time>2012-03-04T09:04:46Z</time>
      </trkpt>
      <trkpt lat="43.15339" lon="-0.53316">
        <ele>327.47</ele>
        <time>2012-03-04T09:04:49Z</time>
      </trkpt>
      <trkpt lat="43.15343" lon="-0.53313">
        <ele>327.47</ele>
        <time>2012-03-04T09:04:50Z</time>
      </trkpt>
      <trkpt lat="43.15346" lon="-0.53309">
        <ele>327.47</ele>
        <time>2012-03-04T09:04:51Z</time>
      </trkpt>
      <trkpt lat="43.15353" lon="-0.53301">
        <ele>327.47</ele>
        <time>2012-03-04T09:04:53Z</time>
      </trkpt>
      <trkpt lat="43.15355" lon="-0.53296">
        <ele>326.99</ele>
        <time>2012-03-04T09:04:54Z</time>
      </trkpt>
      <trkpt lat="43.15355" lon="-0.53292">
        <ele>326.99</ele>
        <time>2012-03-04T09:04:55Z</time>
      </trkpt>
      <trkpt lat="43.15353" lon="-0.53287">
        <ele>326.99</ele>
        <time>2012-03-04T09:04:56Z</time>
      </trkpt>
      <trkpt lat="43.1535" lon="-0.53282">
        <ele>326.99</ele>
        <time>2012-03-04T09:04:57Z</time>
      </trkpt>
      <trkpt lat="43.15347" lon="-0.53278">
        <ele>326.99</ele>
        <time>2012-03-04T09:04:58Z</time>
      </trkpt>
      <trkpt lat="43.15317" lon="-0.53237">
        <ele>326.5</ele>
        <time>2012-03-04T09:05:06Z</time>
      </trkpt>
      <trkpt lat="43.15298" lon="-0.53205">
        <ele>325.54</ele>
        <time>2012-03-04T09:05:11Z</time>
      </trkpt>
      <trkpt lat="43.15295" lon="-0.53198">
        <ele>325.54</ele>
        <time>2012-03-04T09:05:12Z</time>
      </trkpt>
      <trkpt lat="43.15294" lon="-0.5319">
        <ele>325.06</ele>
        <time>2012-03-04T09:05:13Z</time>
      </trkpt>
      <trkpt lat="43.15293" lon="-0.53183">
        <ele>325.06</ele>
        <time>2012-03-04T09:05:14Z</time>
      </trkpt>
      <trkpt lat="43.15293" lon="-0.53175">
        <ele>325.54</ele>
        <time>2012-03-04T09:05:15Z</time>
      </trkpt>
      <trkpt lat="43.15294" lon="-0.53167">
        <ele>325.54</ele>
        <time>2012-03-04T09:05:16Z</time>
      </trkpt>
      <trkpt lat="43.15296" lon="-0.53103">
        <ele>324.58</ele>
        <time>2012-03-04T09:05:24Z</time>
      </trkpt>
      <trkpt lat="43.15298" lon="-0.53052">
        <ele>325.06</ele>
        <time>2012-03-04T09:05:30Z</time>
      </trkpt>
      <trkpt lat="43.15297" lon="-0.53043">
        <ele>325.06</ele>
        <time>2012-03-04T09:05:31Z</time>
      </trkpt>
      <trkpt lat="43.15296" lon="-0.53035">
        <ele>325.06</ele>
        <time>2012-03-04T09:05:32Z</time>
      </trkpt>
      <trkpt lat="43.15286" lon="-0.52978">
        <ele>324.1</ele>
        <time>2012-03-04T09:05:38Z</time>
      </trkpt>
      <trkpt lat="43.15285" lon="-0.52969">
        <ele>323.62</ele>
        <time>2012-03-04T09:05:39Z</time>
      </trkpt>
      <trkpt lat="43.15284" lon="-0.5295">
        <ele>323.62</ele>
        <time>2012-03-04T09:05:41Z</time>
      </trkpt>
      <trkpt lat="43.15285" lon="-0.52941">
        <ele>323.14</ele>
        <time>2012-03-04T09:05:42Z</time>
      </trkpt>
      <trkpt lat="43.15289" lon="-0.52934">
        <ele>322.66</ele>
        <time>2012-03-04T09:05:43Z</time>
      </trkpt>
      <trkpt lat="43.15294" lon="-0.52926">
        <ele>321.7</ele>
        <time>2012-03-04T09:05:44Z</time>
      </trkpt>
      <trkpt lat="43.15299" lon="-0.52919">
        <ele>321.22</ele>
        <time>2012-03-04T09:05:45Z</time>
      </trkpt>
      <trkpt lat="43.15306" lon="-0.5291">
        <ele>321.22</ele>
        <time>2012-03-04T09:05:46Z</time>
      </trkpt>
      <trkpt lat="43.15311" lon="-0.52901">
        <ele>320.74</ele>
        <time>2012-03-04T09:05:47Z</time>
      </trkpt>
      <trkpt lat="43.15317" lon="-0.5289">
        <ele>318.81</ele>
        <time>2012-03-04T09:05:48Z</time>
      </trkpt>
      <trkpt lat="43.15321" lon="-0.52878">
        <ele>317.85</ele>
        <time>2012-03-04T09:05:49Z</time>
      </trkpt>
      <trkpt lat="43.15325" lon="-0.52865">
        <ele>316.89</ele>
        <time>2012-03-04T09:05:50Z</time>
      </trkpt>
      <trkpt lat="43.15327" lon="-0.52851">
        <ele>315.93</ele>
        <time>2012-03-04T09:05:51Z</time>
      </trkpt>
      <trkpt lat="43.15328" lon="-0.52838">
        <ele>314.49</ele>
        <time>2012-03-04T09:05:52Z</time>
      </trkpt>
      <trkpt lat="43.15327" lon="-0.52825">
        <ele>313.05</ele>
        <time>2012-03-04T09:05:53Z</time>
      </trkpt>
      <trkpt lat="43.15327" lon="-0.52812">
        <ele>312.09</ele>
        <time>2012-03-04T09:05:54Z</time>
      </trkpt>
      <trkpt lat="43.15325" lon="-0.52788">
        <ele>308.72</ele>
        <time>2012-03-04T09:05:56Z</time>
      </trkpt>
      <trkpt lat="43.15324" lon="-0.5277">
        <ele>307.28</ele>
        <time>2012-03-04T09:05:58Z</time>
      </trkpt>
      <trkpt lat="43.15321" lon="-0.52764">
        <ele>306.32</ele>
        <time>2012-03-04T09:05:59Z</time>
      </trkpt>
      <trkpt lat="43.15317" lon="-0.5276">
        <ele>305.84</ele>
        <time>2012-03-04T09:06:00Z</time>
      </trkpt>
      <trkpt lat="43.15313" lon="-0.52758">
        <ele>305.84</ele>
        <time>2012-03-04T09:06:01Z</time>
      </trkpt>
      <trkpt lat="43.15309" lon="-0.52757">
        <ele>305.36</ele>
        <time>2012-03-04T09:06:02Z</time>
      </trkpt>
      <trkpt lat="43.15306" lon="-0.52756">
        <ele>305.84</ele>
        <time>2012-03-04T09:06:03Z</time>
      </trkpt>
      <trkpt lat="43.15303" lon="-0.52755">
        <ele>305.36</ele>
        <time>2012-03-04T09:06:04Z</time>
      </trkpt>
      <trkpt lat="43.153" lon="-0.52753">
        <ele>305.36</ele>
        <time>2012-03-04T09:06:05Z</time>
      </trkpt>
      <trkpt lat="43.15297" lon="-0.52751">
        <ele>305.84</ele>
        <time>2012-03-04T09:06:06Z</time>
      </trkpt>
      <trkpt lat="43.15289" lon="-0.52744">
        <ele>304.39</ele>
        <time>2012-03-04T09:06:11Z</time>
      </trkpt>
      <trkpt lat="43.15286" lon="-0.5274">
        <ele>303.91</ele>
        <time>2012-03-04T09:06:17Z</time>
      </trkpt>
      <trkpt lat="43.15284" lon="-0.52738">
        <ele>303.91</ele>
        <time>2012-03-04T09:06:25Z</time>
      </trkpt>
      <trkpt lat="43.15284" lon="-0.52737">
        <ele>304.39</ele>
        <time>2012-03-04T09:06:32Z</time>
      </trkpt>
      <trkpt lat="43.15284" lon="-0.52736">
        <ele>304.39</ele>
        <time>2012-03-04T09:06:33Z</time>
      </trkpt>
      <trkpt lat="43.15283" lon="-0.52733">
        <ele>304.88</ele>
        <time>2012-03-04T09:06:38Z</time>
      </trkpt>
      <trkpt lat="43.15282" lon="-0.52733">
        <ele>304.39</ele>
        <time>2012-03-04T09:06:40Z</time>
      </trkpt>
      <trkpt lat="43.15283" lon="-0.5273">
        <ele>304.88</ele>
        <time>2012-03-04T09:06:42Z</time>
      </trkpt>
      <trkpt lat="43.15284" lon="-0.52724">
        <ele>305.84</ele>
        <time>2012-03-04T09:06:47Z</time>
      </trkpt>
      <trkpt lat="43.15285" lon="-0.52722">
        <ele>305.84</ele>
        <time>2012-03-04T09:06:48Z</time>
      </trkpt>
      <trkpt lat="43.15284" lon="-0.5272">
        <ele>305.84</ele>
        <time>2012-03-04T09:06:49Z</time>
      </trkpt>
      <trkpt lat="43.15277" lon="-0.52701">
        <ele>307.28</ele>
        <time>2012-03-04T09:06:56Z</time>
      </trkpt>
      <trkpt lat="43.15273" lon="-0.52692">
        <ele>307.28</ele>
        <time>2012-03-04T09:06:59Z</time>
      </trkpt>
      <trkpt lat="43.15268" lon="-0.52688">
        <ele>307.76</ele>
        <time>2012-03-04T09:07:02Z</time>
      </trkpt>
      <trkpt lat="43.15254" lon="-0.52678">
        <ele>309.2</ele>
        <time>2012-03-04T09:07:10Z</time>
      </trkpt>
      <trkpt lat="43.15249" lon="-0.5267">
        <ele>311.12</ele>
        <time>2012-03-04T09:07:16Z</time>
      </trkpt>
      <trkpt lat="43.15245" lon="-0.52668">
        <ele>312.57</ele>
        <time>2012-03-04T09:07:20Z</time>
      </trkpt>
      <trkpt lat="43.15234" lon="-0.52656">
        <ele>314.01</ele>
        <time>2012-03-04T09:07:28Z</time>
      </trkpt>
      <trkpt lat="43.15227" lon="-0.52649">
        <ele>315.45</ele>
        <time>2012-03-04T09:07:34Z</time>
      </trkpt>
      <trkpt lat="43.15215" lon="-0.52641">
        <ele>316.89</ele>
        <time>2012-03-04T09:07:40Z</time>
      </trkpt>
      <trkpt lat="43.15207" lon="-0.52635">
        <ele>317.85</ele>
        <time>2012-03-04T09:07:44Z</time>
      </trkpt>
      <trkpt lat="43.15196" lon="-0.52626">
        <ele>319.78</ele>
        <time>2012-03-04T09:07:50Z</time>
      </trkpt>
      <trkpt lat="43.1519" lon="-0.52612">
        <ele>320.74</ele>
        <time>2012-03-04T09:07:56Z</time>
      </trkpt>
      <trkpt lat="43.15186" lon="-0.52597">
        <ele>322.18</ele>
        <time>2012-03-04T09:08:02Z</time>
      </trkpt>
      <trkpt lat="43.15184" lon="-0.52591">
        <ele>322.66</ele>
        <time>2012-03-04T09:08:05Z</time>
      </trkpt>
      <trkpt lat="43.15174" lon="-0.52578">
        <ele>324.1</ele>
        <time>2012-03-04T09:08:13Z</time>
      </trkpt>
      <trkpt lat="43.15164" lon="-0.52569">
        <ele>324.58</ele>
        <time>2012-03-04T09:08:19Z</time>
      </trkpt>
      <trkpt lat="43.15161" lon="-0.52568">
        <ele>325.06</ele>
        <time>2012-03-04T09:08:20Z</time>
      </trkpt>
      <trkpt lat="43.15149" lon="-0.52563">
        <ele>324.1</ele>
        <time>2012-03-04T09:08:24Z</time>
      </trkpt>
      <trkpt lat="43.15137" lon="-0.52547">
        <ele>323.62</ele>
        <time>2012-03-04T09:08:28Z</time>
      </trkpt>
      <trkpt lat="43.15135" lon="-0.52543">
        <ele>323.62</ele>
        <time>2012-03-04T09:08:29Z</time>
      </trkpt>
      <trkpt lat="43.15118" lon="-0.52521">
        <ele>324.58</ele>
        <time>2012-03-04T09:08:36Z</time>
      </trkpt>
      <trkpt lat="43.15098" lon="-0.52504">
        <ele>326.5</ele>
        <time>2012-03-04T09:08:43Z</time>
      </trkpt>
      <trkpt lat="43.15088" lon="-0.52479">
        <ele>327.47</ele>
        <time>2012-03-04T09:08:50Z</time>
      </trkpt>
      <trkpt lat="43.1508" lon="-0.52473">
        <ele>327.47</ele>
        <time>2012-03-04T09:08:54Z</time>
      </trkpt>
      <trkpt lat="43.15071" lon="-0.52465">
        <ele>327.95</ele>
        <time>2012-03-04T09:08:57Z</time>
      </trkpt>
      <trkpt lat="43.15068" lon="-0.52439">
        <ele>328.91</ele>
        <time>2012-03-04T09:09:03Z</time>
      </trkpt>
      <trkpt lat="43.15055" lon="-0.52418">
        <ele>329.87</ele>
        <time>2012-03-04T09:09:09Z</time>
      </trkpt>
      <trkpt lat="43.15043" lon="-0.52395">
        <ele>331.31</ele>
        <time>2012-03-04T09:09:15Z</time>
      </trkpt>
      <trkpt lat="43.15043" lon="-0.52375">
        <ele>331.31</ele>
        <time>2012-03-04T09:09:19Z</time>
      </trkpt>
      <trkpt lat="43.15035" lon="-0.52355">
        <ele>331.79</ele>
        <time>2012-03-04T09:09:24Z</time>
      </trkpt>
      <trkpt lat="43.15015" lon="-0.52324">
        <ele>332.75</ele>
        <time>2012-03-04T09:09:32Z</time>
      </trkpt>
      <trkpt lat="43.14997" lon="-0.52302">
        <ele>333.23</ele>
        <time>2012-03-04T09:09:38Z</time>
      </trkpt>
      <trkpt lat="43.14981" lon="-0.52287">
        <ele>333.71</ele>
        <time>2012-03-04T09:09:44Z</time>
      </trkpt>
      <trkpt lat="43.14966" lon="-0.52272">
        <ele>334.2</ele>
        <time>2012-03-04T09:09:50Z</time>
      </trkpt>
      <trkpt lat="43.1495" lon="-0.52257">
        <ele>334.2</ele>
        <time>2012-03-04T09:09:56Z</time>
      </trkpt>
      <trkpt lat="43.14945" lon="-0.52251">
        <ele>334.68</ele>
        <time>2012-03-04T09:09:58Z</time>
      </trkpt>
      <trkpt lat="43.14928" lon="-0.52239">
        <ele>336.12</ele>
        <time>2012-03-04T09:10:05Z</time>
      </trkpt>
      <trkpt lat="43.14909" lon="-0.52225">
        <ele>337.56</ele>
        <time>2012-03-04T09:10:12Z</time>
      </trkpt>
      <trkpt lat="43.14896" lon="-0.52211">
        <ele>338.52</ele>
        <time>2012-03-04T09:10:18Z</time>
      </trkpt>
      <trkpt lat="43.14885" lon="-0.5219">
        <ele>338.52</ele>
        <time>2012-03-04T09:10:24Z</time>
      </trkpt>
      <trkpt lat="43.1488" lon="-0.52178">
        <ele>338.52</ele>
        <time>2012-03-04T09:10:27Z</time>
      </trkpt>
      <trkpt lat="43.14874" lon="-0.52148">
        <ele>338.52</ele>
        <time>2012-03-04T09:10:33Z</time>
      </trkpt>
      <trkpt lat="43.14865" lon="-0.52124">
        <ele>339</ele>
        <time>2012-03-04T09:10:38Z</time>
      </trkpt>
      <trkpt lat="43.1485" lon="-0.52106">
        <ele>339.48</ele>
        <time>2012-03-04T09:10:44Z</time>
      </trkpt>
      <trkpt lat="43.14833" lon="-0.52089">
        <ele>340.44</ele>
        <time>2012-03-04T09:10:51Z</time>
      </trkpt>
      <trkpt lat="43.14828" lon="-0.52086">
        <ele>340.92</ele>
        <time>2012-03-04T09:10:53Z</time>
      </trkpt>
      <trkpt lat="43.14814" lon="-0.52072">
        <ele>341.89</ele>
        <time>2012-03-04T09:10:59Z</time>
      </trkpt>
      <trkpt lat="43.14799" lon="-0.52054">
        <ele>342.37</ele>
        <time>2012-03-04T09:11:06Z</time>
      </trkpt>
      <trkpt lat="43.14783" lon="-0.5203">
        <ele>343.33</ele>
        <time>2012-03-04T09:11:13Z</time>
      </trkpt>
      <trkpt lat="43.14765" lon="-0.52008">
        <ele>344.77</ele>
        <time>2012-03-04T09:11:20Z</time>
      </trkpt>
      <trkpt lat="43.14748" lon="-0.51991">
        <ele>345.25</ele>
        <time>2012-03-04T09:11:27Z</time>
      </trkpt>
      <trkpt lat="43.14746" lon="-0.51988">
        <ele>346.21</ele>
        <time>2012-03-04T09:11:28Z</time>
      </trkpt>
      <trkpt lat="43.14737" lon="-0.51987">
        <ele>346.21</ele>
        <time>2012-03-04T09:11:32Z</time>
      </trkpt>
      <trkpt lat="43.14723" lon="-0.51992">
        <ele>346.21</ele>
        <time>2012-03-04T09:11:39Z</time>
      </trkpt>
      <trkpt lat="43.14711" lon="-0.51975">
        <ele>346.21</ele>
        <time>2012-03-04T09:11:44Z</time>
      </trkpt>
      <trkpt lat="43.14708" lon="-0.51971">
        <ele>345.73</ele>
        <time>2012-03-04T09:11:45Z</time>
      </trkpt>
      <trkpt lat="43.14667" lon="-0.51936">
        <ele>345.73</ele>
        <time>2012-03-04T09:11:53Z</time>
      </trkpt>
      <trkpt lat="43.14641" lon="-0.51912">
        <ele>345.25</ele>
        <time>2012-03-04T09:11:59Z</time>
      </trkpt>
      <trkpt lat="43.1462" lon="-0.51896">
        <ele>344.77</ele>
        <time>2012-03-04T09:12:04Z</time>
      </trkpt>
      <trkpt lat="43.14584" lon="-0.5188">
        <ele>345.25</ele>
        <time>2012-03-04T09:12:12Z</time>
      </trkpt>
      <trkpt lat="43.1458" lon="-0.51879">
        <ele>345.25</ele>
        <time>2012-03-04T09:12:13Z</time>
      </trkpt>
      <trkpt lat="43.14548" lon="-0.51862">
        <ele>346.21</ele>
        <time>2012-03-04T09:12:21Z</time>
      </trkpt>
      <trkpt lat="43.14545" lon="-0.51859">
        <ele>346.21</ele>
        <time>2012-03-04T09:12:22Z</time>
      </trkpt>
      <trkpt lat="43.14541" lon="-0.51856">
        <ele>346.69</ele>
        <time>2012-03-04T09:12:23Z</time>
      </trkpt>
      <trkpt lat="43.14517" lon="-0.5182">
        <ele>347.65</ele>
        <time>2012-03-04T09:12:32Z</time>
      </trkpt>
      <trkpt lat="43.14499" lon="-0.51779">
        <ele>348.62</ele>
        <time>2012-03-04T09:12:40Z</time>
      </trkpt>
      <trkpt lat="43.14481" lon="-0.51734">
        <ele>349.1</ele>
        <time>2012-03-04T09:12:48Z</time>
      </trkpt>
      <trkpt lat="43.14458" lon="-0.51685">
        <ele>348.62</ele>
        <time>2012-03-04T09:12:56Z</time>
      </trkpt>
      <trkpt lat="43.14438" lon="-0.51644">
        <ele>349.1</ele>
        <time>2012-03-04T09:13:04Z</time>
      </trkpt>
      <trkpt lat="43.14437" lon="-0.51643">
        <ele>348.62</ele>
        <time>2012-03-04T09:13:10Z</time>
      </trkpt>
      <trkpt lat="43.14438" lon="-0.51642">
        <ele>347.65</ele>
        <time>2012-03-04T09:13:20Z</time>
      </trkpt>
      <trkpt lat="43.14438" lon="-0.51642">
        <ele>348.62</ele>
        <time>2012-03-04T09:13:30Z</time>
      </trkpt>
      <trkpt lat="43.14437" lon="-0.51639">
        <ele>348.62</ele>
        <time>2012-03-04T09:13:36Z</time>
      </trkpt>
      <trkpt lat="43.14435" lon="-0.51638">
        <ele>349.1</ele>
        <time>2012-03-04T09:13:37Z</time>
      </trkpt>
      <trkpt lat="43.14434" lon="-0.51637">
        <ele>349.1</ele>
        <time>2012-03-04T09:13:38Z</time>
      </trkpt>
      <trkpt lat="43.14432" lon="-0.51635">
        <ele>349.1</ele>
        <time>2012-03-04T09:13:39Z</time>
      </trkpt>
      <trkpt lat="43.1443" lon="-0.51632">
        <ele>349.58</ele>
        <time>2012-03-04T09:13:40Z</time>
      </trkpt>
      <trkpt lat="43.14428" lon="-0.51628">
        <ele>349.58</ele>
        <time>2012-03-04T09:13:41Z</time>
      </trkpt>
      <trkpt lat="43.14426" lon="-0.51624">
        <ele>350.06</ele>
        <time>2012-03-04T09:13:42Z</time>
      </trkpt>
      <trkpt lat="43.14424" lon="-0.5162">
        <ele>350.06</ele>
        <time>2012-03-04T09:13:43Z</time>
      </trkpt>
      <trkpt lat="43.1442" lon="-0.51616">
        <ele>350.06</ele>
        <time>2012-03-04T09:13:44Z</time>
      </trkpt>
      <trkpt lat="43.14391" lon="-0.51577">
        <ele>350.54</ele>
        <time>2012-03-04T09:13:52Z</time>
      </trkpt>
      <trkpt lat="43.14359" lon="-0.51531">
        <ele>351.02</ele>
        <time>2012-03-04T09:14:00Z</time>
      </trkpt>
      <trkpt lat="43.14331" lon="-0.51478">
        <ele>350.54</ele>
        <time>2012-03-04T09:14:08Z</time>
      </trkpt>
      <trkpt lat="43.14312" lon="-0.51423">
        <ele>350.54</ele>
        <time>2012-03-04T09:14:15Z</time>
      </trkpt>
      <trkpt lat="43.14291" lon="-0.51358">
        <ele>350.54</ele>
        <time>2012-03-04T09:14:23Z</time>
      </trkpt>
      <trkpt lat="43.14277" lon="-0.5129">
        <ele>351.5</ele>
        <time>2012-03-04T09:14:31Z</time>
      </trkpt>
      <trkpt lat="43.14272" lon="-0.5122">
        <ele>351.02</ele>
        <time>2012-03-04T09:14:39Z</time>
      </trkpt>
      <trkpt lat="43.14272" lon="-0.51204">
        <ele>351.5</ele>
        <time>2012-03-04T09:14:41Z</time>
      </trkpt>
      <trkpt lat="43.14273" lon="-0.51196">
        <ele>351.5</ele>
        <time>2012-03-04T09:14:42Z</time>
      </trkpt>
      <trkpt lat="43.14275" lon="-0.51189">
        <ele>351.98</ele>
        <time>2012-03-04T09:14:43Z</time>
      </trkpt>
      <trkpt lat="43.14277" lon="-0.51181">
        <ele>351.98</ele>
        <time>2012-03-04T09:14:44Z</time>
      </trkpt>
      <trkpt lat="43.14279" lon="-0.51175">
        <ele>352.46</ele>
        <time>2012-03-04T09:14:45Z</time>
      </trkpt>
      <trkpt lat="43.14282" lon="-0.51169">
        <ele>352.46</ele>
        <time>2012-03-04T09:14:46Z</time>
      </trkpt>
      <trkpt lat="43.14303" lon="-0.51134">
        <ele>352.46</ele>
        <time>2012-03-04T09:14:52Z</time>
      </trkpt>
      <trkpt lat="43.14325" lon="-0.5109">
        <ele>351.5</ele>
        <time>2012-03-04T09:14:58Z</time>
      </trkpt>
      <trkpt lat="43.14348" lon="-0.51047">
        <ele>351.5</ele>
        <time>2012-03-04T09:15:04Z</time>
      </trkpt>
      <trkpt lat="43.1436" lon="-0.51024">
        <ele>350.54</ele>
        <time>2012-03-04T09:15:07Z</time>
      </trkpt>
      <trkpt lat="43.14362" lon="-0.51017">
        <ele>350.06</ele>
        <time>2012-03-04T09:15:08Z</time>
      </trkpt>
    </trkseg>
  </trk>
</gpx>